sensor_id;sensor_type;location;lat;lon;timestamp;P1;durP1;ratioP1;P2;durP2;ratioP2
24249;SDS011;12379;49.820;8.648;2023-07-02T00:01:47;0.50;;;0.50;;
24249;SDS011;12379;49.820;8.648;2023-07-02T00:04:13;0.50;;;0.50;;
24249;SDS011;12379;49.820;8.648;2023-07-02T00:06:41;0.40;;;0.40;;
24249;SDS011;12379;49.820;8.648;2023-07-02T00:09:10;0.50;;;0.50;;
24249;SDS011;12379;49.820;8.648;2023-07-02T00:11:37;0.70;;;0.70;;
24249;SDS011;12379;49.820;8.648;2023-07-02T00:14:04;0.70;;;0.50;;
24249;SDS011;12379;49.820;8.648;2023-07-02T00:16:32;0.60;;;0.60;;
24249;SDS011;12379;49.820;8.648;2023-07-02T00:19:00;0.47;;;0.47;;
24249;SDS011;12379;49.820;8.648;2023-07-02T00:21:28;0.53;;;0.53;;
24249;SDS011;12379;49.820;8.648;2023-07-02T00:23:54;0.63;;;0.63;;
24249;SDS011;12379;49.820;8.648;2023-07-02T00:26:24;0.40;;;0.40;;
24249;SDS011;12379;49.820;8.648;2023-07-02T00:28:50;0.60;;;0.60;;
24249;SDS011;12379;49.820;8.648;2023-07-02T00:31:16;1.10;;;1.00;;
24249;SDS011;12379;49.820;8.648;2023-07-02T00:33:41;0.60;;;0.60;;
24249;SDS011;12379;49.820;8.648;2023-07-02T00:36:07;0.40;;;0.40;;
24249;SDS011;12379;49.820;8.648;2023-07-02T00:38:43;0.50;;;0.40;;
24249;SDS011;12379;49.820;8.648;2023-07-02T00:41:10;0.50;;;0.50;;
24249;SDS011;12379;49.820;8.648;2023-07-02T00:43:36;0.87;;;0.60;;
24249;SDS011;12379;49.820;8.648;2023-07-02T00:46:09;0.97;;;0.70;;
24249;SDS011;12379;49.820;8.648;2023-07-02T00:48:38;0.60;;;0.60;;
24249;SDS011;12379;49.820;8.648;2023-07-02T00:51:04;3.23;;;0.90;;
24249;SDS011;12379;49.820;8.648;2023-07-02T00:53:30;5.10;;;0.70;;
24249;SDS011;12379;49.820;8.648;2023-07-02T00:55:57;0.70;;;0.70;;
24249;SDS011;12379;49.820;8.648;2023-07-02T00:58:23;0.60;;;0.60;;
24249;SDS011;12379;49.820;8.648;2023-07-02T01:00:49;0.50;;;0.50;;
24249;SDS011;12379;49.820;8.648;2023-07-02T01:03:15;0.60;;;0.60;;
24249;SDS011;12379;49.820;8.648;2023-07-02T01:05:40;0.80;;;0.80;;
24249;SDS011;12379;49.820;8.648;2023-07-02T01:08:06;1.27;;;0.50;;
24249;SDS011;12379;49.820;8.648;2023-07-02T01:10:32;0.40;;;0.40;;
24249;SDS011;12379;49.820;8.648;2023-07-02T01:13:00;0.57;;;0.57;;
24249;SDS011;12379;49.820;8.648;2023-07-02T01:15:29;1.23;;;0.77;;
24249;SDS011;12379;49.820;8.648;2023-07-02T01:17:56;0.57;;;0.57;;
24249;SDS011;12379;49.820;8.648;2023-07-02T01:20:22;0.40;;;0.40;;
24249;SDS011;12379;49.820;8.648;2023-07-02T01:22:51;1.13;;;0.80;;
24249;SDS011;12379;49.820;8.648;2023-07-02T01:25:17;0.50;;;0.50;;
24249;SDS011;12379;49.820;8.648;2023-07-02T01:27:43;1.33;;;0.63;;
24249;SDS011;12379;49.820;8.648;2023-07-02T01:30:09;0.67;;;0.67;;
24249;SDS011;12379;49.820;8.648;2023-07-02T01:32:36;0.70;;;0.70;;
24249;SDS011;12379;49.820;8.648;2023-07-02T01:35:02;0.40;;;0.40;;
24249;SDS011;12379;49.820;8.648;2023-07-02T01:37:28;0.60;;;0.60;;
24249;SDS011;12379;49.820;8.648;2023-07-02T01:39:53;0.40;;;0.40;;
24249;SDS011;12379;49.820;8.648;2023-07-02T01:42:19;1.43;;;1.13;;
24249;SDS011;12379;49.820;8.648;2023-07-02T01:44:46;0.40;;;0.40;;
24249;SDS011;12379;49.820;8.648;2023-07-02T01:47:13;0.50;;;0.50;;
24249;SDS011;12379;49.820;8.648;2023-07-02T01:49:40;0.70;;;0.70;;
24249;SDS011;12379;49.820;8.648;2023-07-02T01:52:06;0.67;;;0.67;;
24249;SDS011;12379;49.820;8.648;2023-07-02T01:54:32;0.43;;;0.43;;
24249;SDS011;12379;49.820;8.648;2023-07-02T01:56:59;0.50;;;0.50;;
24249;SDS011;12379;49.820;8.648;2023-07-02T01:59:25;0.60;;;0.60;;
24249;SDS011;12379;49.820;8.648;2023-07-02T02:01:51;1.03;;;0.70;;
24249;SDS011;12379;49.820;8.648;2023-07-02T02:04:18;0.90;;;0.90;;
24249;SDS011;12379;49.820;8.648;2023-07-02T02:06:43;0.40;;;0.40;;
24249;SDS011;12379;49.820;8.648;2023-07-02T02:09:09;1.17;;;0.60;;
24249;SDS011;12379;49.820;8.648;2023-07-02T02:11:38;0.60;;;0.57;;
24249;SDS011;12379;49.820;8.648;2023-07-02T02:14:05;0.40;;;0.40;;
24249;SDS011;12379;49.820;8.648;2023-07-02T02:16:30;1.43;;;1.43;;
24249;SDS011;12379;49.820;8.648;2023-07-02T02:18:56;0.50;;;0.40;;
24249;SDS011;12379;49.820;8.648;2023-07-02T02:21:22;0.40;;;0.40;;
24249;SDS011;12379;49.820;8.648;2023-07-02T02:23:47;2.67;;;0.70;;
24249;SDS011;12379;49.820;8.648;2023-07-02T02:26:14;0.70;;;0.70;;
24249;SDS011;12379;49.820;8.648;2023-07-02T02:28:40;0.70;;;0.70;;
24249;SDS011;12379;49.820;8.648;2023-07-02T02:31:06;0.40;;;0.40;;
24249;SDS011;12379;49.820;8.648;2023-07-02T02:33:32;1.00;;;1.00;;
24249;SDS011;12379;49.820;8.648;2023-07-02T02:35:58;1.47;;;1.37;;
24249;SDS011;12379;49.820;8.648;2023-07-02T02:38:24;0.80;;;0.50;;
24249;SDS011;12379;49.820;8.648;2023-07-02T02:40:49;1.00;;;1.00;;
24249;SDS011;12379;49.820;8.648;2023-07-02T02:43:15;2.80;;;1.90;;
24249;SDS011;12379;49.820;8.648;2023-07-02T02:45:43;0.50;;;0.50;;
24249;SDS011;12379;49.820;8.648;2023-07-02T02:48:09;2.20;;;1.07;;
24249;SDS011;12379;49.820;8.648;2023-07-02T02:50:35;0.80;;;0.80;;
24249;SDS011;12379;49.820;8.648;2023-07-02T02:53:03;0.47;;;0.47;;
24249;SDS011;12379;49.820;8.648;2023-07-02T02:55:29;0.50;;;0.50;;
24249;SDS011;12379;49.820;8.648;2023-07-02T02:57:54;0.70;;;0.70;;
24249;SDS011;12379;49.820;8.648;2023-07-02T03:00:20;0.83;;;0.83;;
24249;SDS011;12379;49.820;8.648;2023-07-02T03:02:47;1.37;;;1.27;;
24249;SDS011;12379;49.820;8.648;2023-07-02T03:05:13;3.37;;;1.20;;
24249;SDS011;12379;49.820;8.648;2023-07-02T03:07:41;2.63;;;0.77;;
24249;SDS011;12379;49.820;8.648;2023-07-02T03:10:07;1.13;;;0.87;;
24249;SDS011;12379;49.820;8.648;2023-07-02T03:12:34;1.37;;;1.27;;
24249;SDS011;12379;49.820;8.648;2023-07-02T03:15:00;2.00;;;1.13;;
24249;SDS011;12379;49.820;8.648;2023-07-02T03:17:26;0.83;;;0.83;;
24249;SDS011;12379;49.820;8.648;2023-07-02T03:19:52;0.60;;;0.60;;
24249;SDS011;12379;49.820;8.648;2023-07-02T03:22:18;1.00;;;0.90;;
24249;SDS011;12379;49.820;8.648;2023-07-02T03:24:43;1.73;;;0.80;;
24249;SDS011;12379;49.820;8.648;2023-07-02T03:27:09;0.73;;;0.73;;
24249;SDS011;12379;49.820;8.648;2023-07-02T03:29:35;1.13;;;1.10;;
24249;SDS011;12379;49.820;8.648;2023-07-02T03:32:03;1.87;;;1.13;;
24249;SDS011;12379;49.820;8.648;2023-07-02T03:34:29;0.90;;;0.73;;
24249;SDS011;12379;49.820;8.648;2023-07-02T03:36:55;2.53;;;0.70;;
24249;SDS011;12379;49.820;8.648;2023-07-02T03:39:21;1.87;;;0.60;;
24249;SDS011;12379;49.820;8.648;2023-07-02T03:41:47;3.53;;;2.43;;
24249;SDS011;12379;49.820;8.648;2023-07-02T03:44:13;0.50;;;0.50;;
24249;SDS011;12379;49.820;8.648;2023-07-02T03:46:39;1.53;;;0.70;;
24249;SDS011;12379;49.820;8.648;2023-07-02T03:49:05;0.83;;;0.83;;
24249;SDS011;12379;49.820;8.648;2023-07-02T03:51:31;0.50;;;0.50;;
24249;SDS011;12379;49.820;8.648;2023-07-02T03:53:59;0.53;;;0.53;;
24249;SDS011;12379;49.820;8.648;2023-07-02T03:56:25;0.93;;;0.93;;
24249;SDS011;12379;49.820;8.648;2023-07-02T03:58:51;0.93;;;0.90;;
24249;SDS011;12379;49.820;8.648;2023-07-02T04:01:17;1.40;;;1.30;;
24249;SDS011;12379;49.820;8.648;2023-07-02T04:03:52;0.50;;;0.50;;
24249;SDS011;12379;49.820;8.648;2023-07-02T04:06:18;0.90;;;0.90;;
24249;SDS011;12379;49.820;8.648;2023-07-02T04:08:44;6.93;;;2.07;;
24249;SDS011;12379;49.820;8.648;2023-07-02T04:11:10;0.80;;;0.77;;
24249;SDS011;12379;49.820;8.648;2023-07-02T04:13:37;0.60;;;0.60;;
24249;SDS011;12379;49.820;8.648;2023-07-02T04:16:02;1.00;;;0.90;;
24249;SDS011;12379;49.820;8.648;2023-07-02T04:18:28;1.63;;;1.57;;
24249;SDS011;12379;49.820;8.648;2023-07-02T04:20:54;0.60;;;0.60;;
24249;SDS011;12379;49.820;8.648;2023-07-02T04:23:20;2.73;;;2.60;;
24249;SDS011;12379;49.820;8.648;2023-07-02T04:25:46;0.77;;;0.77;;
24249;SDS011;12379;49.820;8.648;2023-07-02T04:28:12;1.17;;;0.80;;
24249;SDS011;12379;49.820;8.648;2023-07-02T04:30:38;0.93;;;0.93;;
24249;SDS011;12379;49.820;8.648;2023-07-02T04:33:03;0.60;;;0.60;;
24249;SDS011;12379;49.820;8.648;2023-07-02T04:35:30;3.70;;;1.07;;
24249;SDS011;12379;49.820;8.648;2023-07-02T04:37:56;2.10;;;1.10;;
24249;SDS011;12379;49.820;8.648;2023-07-02T04:40:22;0.70;;;0.70;;
24249;SDS011;12379;49.820;8.648;2023-07-02T04:42:48;1.93;;;1.73;;
24249;SDS011;12379;49.820;8.648;2023-07-02T04:45:14;4.30;;;2.03;;
24249;SDS011;12379;49.820;8.648;2023-07-02T04:47:44;1.13;;;1.07;;
24249;SDS011;12379;49.820;8.648;2023-07-02T04:50:10;17.37;;;1.23;;
24249;SDS011;12379;49.820;8.648;2023-07-02T04:52:36;2.53;;;2.33;;
24249;SDS011;12379;49.820;8.648;2023-07-02T04:55:03;1.17;;;0.97;;
24249;SDS011;12379;49.820;8.648;2023-07-02T04:57:29;1.10;;;1.00;;
24249;SDS011;12379;49.820;8.648;2023-07-02T04:59:54;3.33;;;0.80;;
24249;SDS011;12379;49.820;8.648;2023-07-02T05:02:20;0.70;;;0.70;;
24249;SDS011;12379;49.820;8.648;2023-07-02T05:04:46;4.40;;;0.93;;
24249;SDS011;12379;49.820;8.648;2023-07-02T05:07:11;3.90;;;2.80;;
24249;SDS011;12379;49.820;8.648;2023-07-02T05:09:37;2.73;;;1.10;;
24249;SDS011;12379;49.820;8.648;2023-07-02T05:12:03;0.67;;;0.50;;
24249;SDS011;12379;49.820;8.648;2023-07-02T05:14:28;1.20;;;1.20;;
24249;SDS011;12379;49.820;8.648;2023-07-02T05:16:54;0.77;;;0.77;;
24249;SDS011;12379;49.820;8.648;2023-07-02T05:19:19;2.13;;;1.40;;
24249;SDS011;12379;49.820;8.648;2023-07-02T05:21:45;3.30;;;1.53;;
24249;SDS011;12379;49.820;8.648;2023-07-02T05:24:10;1.27;;;1.27;;
24249;SDS011;12379;49.820;8.648;2023-07-02T05:26:36;2.80;;;1.40;;
24249;SDS011;12379;49.820;8.648;2023-07-02T05:29:02;2.10;;;1.40;;
24249;SDS011;12379;49.820;8.648;2023-07-02T05:31:27;1.10;;;1.10;;
24249;SDS011;12379;49.820;8.648;2023-07-02T05:33:53;0.83;;;0.83;;
24249;SDS011;12379;49.820;8.648;2023-07-02T05:36:19;8.77;;;3.33;;
24249;SDS011;12379;49.820;8.648;2023-07-02T05:38:45;0.80;;;0.80;;
24249;SDS011;12379;49.820;8.648;2023-07-02T05:41:11;0.40;;;0.40;;
24249;SDS011;12379;49.820;8.648;2023-07-02T05:43:46;1.53;;;1.30;;
24249;SDS011;12379;49.820;8.648;2023-07-02T05:46:12;2.07;;;1.97;;
24249;SDS011;12379;49.820;8.648;2023-07-02T05:48:39;2.93;;;2.73;;
24249;SDS011;12379;49.820;8.648;2023-07-02T05:51:07;4.00;;;3.03;;
24249;SDS011;12379;49.820;8.648;2023-07-02T05:53:33;0.60;;;0.60;;
24249;SDS011;12379;49.820;8.648;2023-07-02T05:55:59;1.80;;;1.60;;
24249;SDS011;12379;49.820;8.648;2023-07-02T05:58:25;1.63;;;1.53;;
24249;SDS011;12379;49.820;8.648;2023-07-02T06:00:51;1.13;;;1.03;;
24249;SDS011;12379;49.820;8.648;2023-07-02T06:03:17;1.00;;;0.90;;
24249;SDS011;12379;49.820;8.648;2023-07-02T06:05:52;0.87;;;0.87;;
24249;SDS011;12379;49.820;8.648;2023-07-02T06:08:18;1.73;;;1.63;;
24249;SDS011;12379;49.820;8.648;2023-07-02T06:10:45;5.20;;;1.13;;
24249;SDS011;12379;49.820;8.648;2023-07-02T06:13:12;2.77;;;2.00;;
24249;SDS011;12379;49.820;8.648;2023-07-02T06:15:41;3.03;;;0.93;;
24249;SDS011;12379;49.820;8.648;2023-07-02T06:21:34;1.43;;;1.33;;
24249;SDS011;12379;49.820;8.648;2023-07-02T06:24:00;4.23;;;1.53;;
24249;SDS011;12379;49.820;8.648;2023-07-02T06:26:30;4.23;;;2.87;;
24249;SDS011;12379;49.820;8.648;2023-07-02T06:28:57;3.10;;;2.73;;
24249;SDS011;12379;49.820;8.648;2023-07-02T06:31:23;7.33;;;1.60;;
24249;SDS011;12379;49.820;8.648;2023-07-02T06:33:49;1.67;;;1.13;;
24249;SDS011;12379;49.820;8.648;2023-07-02T06:36:14;7.60;;;1.83;;
24249;SDS011;12379;49.820;8.648;2023-07-02T06:38:40;10.47;;;2.10;;
24249;SDS011;12379;49.820;8.648;2023-07-02T06:41:06;2.53;;;1.90;;
24249;SDS011;12379;49.820;8.648;2023-07-02T06:43:32;1.27;;;1.27;;
24249;SDS011;12379;49.820;8.648;2023-07-02T06:45:57;0.90;;;0.90;;
24249;SDS011;12379;49.820;8.648;2023-07-02T06:48:23;11.73;;;2.10;;
24249;SDS011;12379;49.820;8.648;2023-07-02T06:50:48;1.10;;;1.00;;
24249;SDS011;12379;49.820;8.648;2023-07-02T06:53:14;2.83;;;1.40;;
24249;SDS011;12379;49.820;8.648;2023-07-02T06:55:40;1.20;;;1.10;;
24249;SDS011;12379;49.820;8.648;2023-07-02T06:58:06;0.83;;;0.83;;
24249;SDS011;12379;49.820;8.648;2023-07-02T07:00:32;5.23;;;1.83;;
24249;SDS011;12379;49.820;8.648;2023-07-02T07:03:00;3.83;;;1.83;;
24249;SDS011;12379;49.820;8.648;2023-07-02T07:05:32;6.33;;;3.27;;
24249;SDS011;12379;49.820;8.648;2023-07-02T07:08:06;2.30;;;2.17;;
24249;SDS011;12379;49.820;8.648;2023-07-02T07:10:32;7.10;;;1.47;;
24249;SDS011;12379;49.820;8.648;2023-07-02T07:13:00;3.00;;;2.60;;
24249;SDS011;12379;49.820;8.648;2023-07-02T07:15:33;3.97;;;1.90;;
24249;SDS011;12379;49.820;8.648;2023-07-02T07:18:02;11.40;;;2.43;;
24249;SDS011;12379;49.820;8.648;2023-07-02T07:20:29;1.70;;;1.57;;
24249;SDS011;12379;49.820;8.648;2023-07-02T07:22:55;1.90;;;1.80;;
24249;SDS011;12379;49.820;8.648;2023-07-02T07:25:21;1.87;;;1.60;;
24249;SDS011;12379;49.820;8.648;2023-07-02T07:27:47;1.40;;;1.27;;
24249;SDS011;12379;49.820;8.648;2023-07-02T07:30:12;3.27;;;1.07;;
24249;SDS011;12379;49.820;8.648;2023-07-02T07:32:39;1.20;;;1.00;;
24249;SDS011;12379;49.820;8.648;2023-07-02T07:35:06;2.30;;;1.40;;
24249;SDS011;12379;49.820;8.648;2023-07-02T07:38:07;6.30;;;1.73;;
24249;SDS011;12379;49.820;8.648;2023-07-02T07:41:02;13.33;;;3.67;;
24249;SDS011;12379;49.820;8.648;2023-07-02T07:43:31;2.50;;;2.27;;
24249;SDS011;12379;49.820;8.648;2023-07-02T07:45:56;1.33;;;1.17;;
24249;SDS011;12379;49.820;8.648;2023-07-02T07:48:23;3.10;;;2.90;;
24249;SDS011;12379;49.820;8.648;2023-07-02T07:50:49;6.27;;;2.47;;
24249;SDS011;12379;49.820;8.648;2023-07-02T07:53:14;1.50;;;1.40;;
24249;SDS011;12379;49.820;8.648;2023-07-02T07:55:40;3.30;;;2.70;;
24249;SDS011;12379;49.820;8.648;2023-07-02T07:58:05;3.07;;;2.87;;
24249;SDS011;12379;49.820;8.648;2023-07-02T08:00:31;4.10;;;2.40;;
24249;SDS011;12379;49.820;8.648;2023-07-02T08:02:59;2.03;;;1.90;;
24249;SDS011;12379;49.820;8.648;2023-07-02T08:05:26;8.50;;;2.37;;
24249;SDS011;12379;49.820;8.648;2023-07-02T08:07:51;1.70;;;1.53;;
24249;SDS011;12379;49.820;8.648;2023-07-02T08:10:18;3.30;;;1.57;;
24249;SDS011;12379;49.820;8.648;2023-07-02T08:12:44;5.10;;;2.20;;
24249;SDS011;12379;49.820;8.648;2023-07-02T08:15:14;1.50;;;1.50;;
24249;SDS011;12379;49.820;8.648;2023-07-02T08:17:39;3.77;;;2.07;;
24249;SDS011;12379;49.820;8.648;2023-07-02T08:20:08;1.77;;;1.43;;
24249;SDS011;12379;49.820;8.648;2023-07-02T08:22:38;1.80;;;1.57;;
24249;SDS011;12379;49.820;8.648;2023-07-02T08:25:07;2.93;;;1.30;;
24249;SDS011;12379;49.820;8.648;2023-07-02T08:27:34;3.27;;;3.07;;
24249;SDS011;12379;49.820;8.648;2023-07-02T08:30:00;0.83;;;0.83;;
24249;SDS011;12379;49.820;8.648;2023-07-02T08:32:26;2.63;;;1.73;;
24249;SDS011;12379;49.820;8.648;2023-07-02T08:34:51;4.10;;;1.50;;
24249;SDS011;12379;49.820;8.648;2023-07-02T08:37:17;2.00;;;1.17;;
24249;SDS011;12379;49.820;8.648;2023-07-02T08:39:43;2.40;;;1.53;;
24249;SDS011;12379;49.820;8.648;2023-07-02T08:42:09;0.93;;;0.83;;
24249;SDS011;12379;49.820;8.648;2023-07-02T08:44:34;6.20;;;1.10;;
24249;SDS011;12379;49.820;8.648;2023-07-02T08:47:03;19.13;;;1.63;;
24249;SDS011;12379;49.820;8.648;2023-07-02T08:49:30;2.53;;;2.33;;
24249;SDS011;12379;49.820;8.648;2023-07-02T08:51:55;1.40;;;1.30;;
24249;SDS011;12379;49.820;8.648;2023-07-02T08:54:21;2.87;;;2.60;;
24249;SDS011;12379;49.820;8.648;2023-07-02T08:56:49;1.83;;;1.73;;
24249;SDS011;12379;49.820;8.648;2023-07-02T08:59:36;2.03;;;1.93;;
24249;SDS011;12379;49.820;8.648;2023-07-02T09:02:01;8.93;;;2.47;;
24249;SDS011;12379;49.820;8.648;2023-07-02T09:04:27;2.43;;;0.83;;
24249;SDS011;12379;49.820;8.648;2023-07-02T09:09:29;1.80;;;1.50;;
24249;SDS011;12379;49.820;8.648;2023-07-02T09:11:55;8.10;;;2.13;;
24249;SDS011;12379;49.820;8.648;2023-07-02T09:14:28;2.07;;;1.40;;
24249;SDS011;12379;49.820;8.648;2023-07-02T09:17:06;4.10;;;1.80;;
24249;SDS011;12379;49.820;8.648;2023-07-02T09:19:34;1.63;;;1.53;;
24249;SDS011;12379;49.820;8.648;2023-07-02T09:22:00;1.67;;;1.37;;
24249;SDS011;12379;49.820;8.648;2023-07-02T09:24:27;12.07;;;3.30;;
24249;SDS011;12379;49.820;8.648;2023-07-02T09:26:55;3.17;;;1.57;;
24249;SDS011;12379;49.820;8.648;2023-07-02T09:29:32;2.60;;;1.67;;
24249;SDS011;12379;49.820;8.648;2023-07-02T09:31:59;4.20;;;2.23;;
24249;SDS011;12379;49.820;8.648;2023-07-02T09:34:36;1.70;;;1.60;;
24249;SDS011;12379;49.820;8.648;2023-07-02T09:37:03;4.70;;;1.53;;
24249;SDS011;12379;49.820;8.648;2023-07-02T09:39:33;3.70;;;2.10;;
24249;SDS011;12379;49.820;8.648;2023-07-02T09:42:01;3.30;;;2.37;;
24249;SDS011;12379;49.820;8.648;2023-07-02T09:44:43;2.70;;;2.50;;
24249;SDS011;12379;49.820;8.648;2023-07-02T09:47:13;4.40;;;2.07;;
24249;SDS011;12379;49.820;8.648;2023-07-02T09:49:41;1.63;;;1.53;;
24249;SDS011;12379;49.820;8.648;2023-07-02T09:52:13;2.40;;;2.03;;
24249;SDS011;12379;49.820;8.648;2023-07-02T09:54:39;6.57;;;3.10;;
24249;SDS011;12379;49.820;8.648;2023-07-02T09:57:07;6.47;;;1.60;;
24249;SDS011;12379;49.820;8.648;2023-07-02T09:59:33;3.23;;;1.90;;
24249;SDS011;12379;49.820;8.648;2023-07-02T10:02:01;6.20;;;3.17;;
24249;SDS011;12379;49.820;8.648;2023-07-02T10:04:27;2.03;;;1.93;;
24249;SDS011;12379;49.820;8.648;2023-07-02T10:07:04;3.43;;;1.93;;
24249;SDS011;12379;49.820;8.648;2023-07-02T10:09:37;7.50;;;3.50;;
24249;SDS011;12379;49.820;8.648;2023-07-02T10:14:43;1.67;;;1.57;;
24249;SDS011;12379;49.820;8.648;2023-07-02T10:17:10;6.53;;;2.90;;
24249;SDS011;12379;49.820;8.648;2023-07-02T10:19:36;2.63;;;2.40;;
24249;SDS011;12379;49.820;8.648;2023-07-02T10:22:02;2.10;;;2.00;;
24249;SDS011;12379;49.820;8.648;2023-07-02T10:24:29;3.33;;;2.43;;
24249;SDS011;12379;49.820;8.648;2023-07-02T10:26:59;1.53;;;1.33;;
24249;SDS011;12379;49.820;8.648;2023-07-02T10:29:26;2.57;;;2.47;;
24249;SDS011;12379;49.820;8.648;2023-07-02T10:31:55;5.43;;;3.00;;
24249;SDS011;12379;49.820;8.648;2023-07-02T10:34:28;7.60;;;2.40;;
24249;SDS011;12379;49.820;8.648;2023-07-02T10:36:54;3.20;;;2.37;;
24249;SDS011;12379;49.820;8.648;2023-07-02T10:39:20;1.83;;;1.73;;
24249;SDS011;12379;49.820;8.648;2023-07-02T10:41:45;7.10;;;2.40;;
24249;SDS011;12379;49.820;8.648;2023-07-02T10:44:11;2.53;;;2.33;;
24249;SDS011;12379;49.820;8.648;2023-07-02T10:46:48;5.57;;;3.00;;
24249;SDS011;12379;49.820;8.648;2023-07-02T10:52:11;4.37;;;1.50;;
24249;SDS011;12379;49.820;8.648;2023-07-02T10:54:40;4.00;;;1.27;;
24249;SDS011;12379;49.820;8.648;2023-07-02T10:57:18;4.70;;;1.80;;
24249;SDS011;12379;49.820;8.648;2023-07-02T10:59:47;5.23;;;1.67;;
24249;SDS011;12379;49.820;8.648;2023-07-02T11:02:14;3.33;;;3.03;;
24249;SDS011;12379;49.820;8.648;2023-07-02T11:04:40;10.43;;;1.70;;
24249;SDS011;12379;49.820;8.648;2023-07-02T11:07:06;4.93;;;1.20;;
24249;SDS011;12379;49.820;8.648;2023-07-02T11:09:32;3.30;;;1.70;;
24249;SDS011;12379;49.820;8.648;2023-07-02T11:11:58;6.27;;;2.80;;
24249;SDS011;12379;49.820;8.648;2023-07-02T11:14:34;1.40;;;1.30;;
24249;SDS011;12379;49.820;8.648;2023-07-02T11:17:12;3.23;;;2.33;;
24249;SDS011;12379;49.820;8.648;2023-07-02T11:19:38;7.57;;;1.53;;
24249;SDS011;12379;49.820;8.648;2023-07-02T11:22:04;9.40;;;1.60;;
24249;SDS011;12379;49.820;8.648;2023-07-02T11:24:30;2.93;;;2.43;;
24249;SDS011;12379;49.820;8.648;2023-07-02T11:26:59;8.27;;;2.57;;
24249;SDS011;12379;49.820;8.648;2023-07-02T11:29:29;3.03;;;2.73;;
24249;SDS011;12379;49.820;8.648;2023-07-02T11:32:04;14.33;;;3.13;;
24249;SDS011;12379;49.820;8.648;2023-07-02T11:34:39;3.67;;;1.90;;
24249;SDS011;12379;49.820;8.648;2023-07-02T11:37:05;2.60;;;2.43;;
24249;SDS011;12379;49.820;8.648;2023-07-02T11:39:32;4.40;;;2.50;;
24249;SDS011;12379;49.820;8.648;2023-07-02T11:41:57;3.77;;;2.83;;
24249;SDS011;12379;49.820;8.648;2023-07-02T11:44:25;6.00;;;3.30;;
24249;SDS011;12379;49.820;8.648;2023-07-02T11:46:50;3.10;;;1.80;;
24249;SDS011;12379;49.820;8.648;2023-07-02T11:49:17;2.83;;;1.80;;
24249;SDS011;12379;49.820;8.648;2023-07-02T11:51:43;2.40;;;2.13;;
24249;SDS011;12379;49.820;8.648;2023-07-02T11:54:13;3.43;;;2.73;;
24249;SDS011;12379;49.820;8.648;2023-07-02T11:56:40;8.43;;;2.90;;
24249;SDS011;12379;49.820;8.648;2023-07-02T11:59:07;3.67;;;2.90;;
24249;SDS011;12379;49.820;8.648;2023-07-02T12:01:33;3.50;;;3.30;;
24249;SDS011;12379;49.820;8.648;2023-07-02T12:03:59;2.13;;;1.90;;
24249;SDS011;12379;49.820;8.648;2023-07-02T12:06:24;2.63;;;2.43;;
24249;SDS011;12379;49.820;8.648;2023-07-02T12:08:50;2.70;;;2.50;;
24249;SDS011;12379;49.820;8.648;2023-07-02T12:11:15;3.17;;;2.27;;
24249;SDS011;12379;49.820;8.648;2023-07-02T12:13:41;2.73;;;2.30;;
24249;SDS011;12379;49.820;8.648;2023-07-02T12:16:07;9.90;;;5.10;;
24249;SDS011;12379;49.820;8.648;2023-07-02T12:18:33;6.73;;;2.27;;
24249;SDS011;12379;49.820;8.648;2023-07-02T12:20:58;3.30;;;3.00;;
24249;SDS011;12379;49.820;8.648;2023-07-02T12:23:24;3.93;;;3.10;;
24249;SDS011;12379;49.820;8.648;2023-07-02T12:25:49;3.73;;;3.00;;
24249;SDS011;12379;49.820;8.648;2023-07-02T12:30:55;5.33;;;2.80;;
24249;SDS011;12379;49.820;8.648;2023-07-02T12:33:21;4.07;;;3.17;;
24249;SDS011;12379;49.820;8.648;2023-07-02T12:35:46;2.63;;;1.63;;
24249;SDS011;12379;49.820;8.648;2023-07-02T12:38:12;2.57;;;1.37;;
24249;SDS011;12379;49.820;8.648;2023-07-02T12:40:39;2.50;;;2.30;;
24249;SDS011;12379;49.820;8.648;2023-07-02T12:43:04;4.60;;;1.73;;
24249;SDS011;12379;49.820;8.648;2023-07-02T12:45:30;5.73;;;2.70;;
24249;SDS011;12379;49.820;8.648;2023-07-02T12:47:56;5.47;;;3.20;;
24249;SDS011;12379;49.820;8.648;2023-07-02T12:50:22;4.03;;;3.63;;
24249;SDS011;12379;49.820;8.648;2023-07-02T12:52:47;3.80;;;2.10;;
24249;SDS011;12379;49.820;8.648;2023-07-02T12:55:13;2.40;;;2.20;;
24249;SDS011;12379;49.820;8.648;2023-07-02T12:57:39;8.13;;;2.77;;
24249;SDS011;12379;49.820;8.648;2023-07-02T13:00:05;7.87;;;3.20;;
24249;SDS011;12379;49.820;8.648;2023-07-02T13:02:31;6.47;;;3.50;;
24249;SDS011;12379;49.820;8.648;2023-07-02T13:04:59;3.23;;;2.77;;
24249;SDS011;12379;49.820;8.648;2023-07-02T13:07:25;2.93;;;2.17;;
24249;SDS011;12379;49.820;8.648;2023-07-02T13:09:51;8.10;;;3.50;;
24249;SDS011;12379;49.820;8.648;2023-07-02T13:12:16;7.10;;;3.80;;
24249;SDS011;12379;49.820;8.648;2023-07-02T13:14:44;5.87;;;2.57;;
24249;SDS011;12379;49.820;8.648;2023-07-02T13:17:15;5.50;;;3.20;;
24249;SDS011;12379;49.820;8.648;2023-07-02T13:19:40;2.87;;;2.67;;
24249;SDS011;12379;49.820;8.648;2023-07-02T13:22:09;4.83;;;3.53;;
24249;SDS011;12379;49.820;8.648;2023-07-02T13:24:35;7.00;;;4.27;;
24249;SDS011;12379;49.820;8.648;2023-07-02T13:27:02;9.00;;;2.90;;
24249;SDS011;12379;49.820;8.648;2023-07-02T13:29:31;3.40;;;3.00;;
24249;SDS011;12379;49.820;8.648;2023-07-02T13:31:57;3.87;;;2.60;;
24249;SDS011;12379;49.820;8.648;2023-07-02T13:34:22;3.30;;;2.97;;
24249;SDS011;12379;49.820;8.648;2023-07-02T13:36:48;4.60;;;1.97;;
24249;SDS011;12379;49.820;8.648;2023-07-02T13:39:14;8.73;;;1.60;;
24249;SDS011;12379;49.820;8.648;2023-07-02T13:41:39;3.33;;;3.13;;
24249;SDS011;12379;49.820;8.648;2023-07-02T13:44:05;4.60;;;2.27;;
24249;SDS011;12379;49.820;8.648;2023-07-02T13:46:30;5.17;;;2.70;;
24249;SDS011;12379;49.820;8.648;2023-07-02T13:48:56;3.47;;;2.57;;
24249;SDS011;12379;49.820;8.648;2023-07-02T13:51:21;3.17;;;2.87;;
24249;SDS011;12379;49.820;8.648;2023-07-02T13:53:47;3.60;;;2.73;;
24249;SDS011;12379;49.820;8.648;2023-07-02T13:56:12;2.20;;;2.00;;
24249;SDS011;12379;49.820;8.648;2023-07-02T13:58:58;7.73;;;2.27;;
24249;SDS011;12379;49.820;8.648;2023-07-02T14:01:24;2.70;;;2.50;;
24249;SDS011;12379;49.820;8.648;2023-07-02T14:03:50;4.47;;;4.00;;
24249;SDS011;12379;49.820;8.648;2023-07-02T14:06:15;9.87;;;3.30;;
24249;SDS011;12379;49.820;8.648;2023-07-02T14:08:41;13.67;;;3.40;;
24249;SDS011;12379;49.820;8.648;2023-07-02T14:11:07;3.00;;;2.20;;
24249;SDS011;12379;49.820;8.648;2023-07-02T14:13:33;5.33;;;3.27;;
24249;SDS011;12379;49.820;8.648;2023-07-02T14:15:59;2.57;;;2.40;;
24249;SDS011;12379;49.820;8.648;2023-07-02T14:18:24;6.63;;;2.83;;
24249;SDS011;12379;49.820;8.648;2023-07-02T14:20:50;2.77;;;2.57;;
24249;SDS011;12379;49.820;8.648;2023-07-02T14:23:18;8.63;;;2.50;;
24249;SDS011;12379;49.820;8.648;2023-07-02T14:25:43;2.77;;;1.63;;
24249;SDS011;12379;49.820;8.648;2023-07-02T14:28:09;3.77;;;2.60;;
24249;SDS011;12379;49.820;8.648;2023-07-02T14:30:35;4.97;;;4.47;;
24249;SDS011;12379;49.820;8.648;2023-07-02T14:33:01;8.97;;;3.30;;
24249;SDS011;12379;49.820;8.648;2023-07-02T14:35:27;6.60;;;3.20;;
24249;SDS011;12379;49.820;8.648;2023-07-02T14:37:54;5.83;;;3.57;;
24249;SDS011;12379;49.820;8.648;2023-07-02T14:40:20;4.20;;;3.93;;
24249;SDS011;12379;49.820;8.648;2023-07-02T14:42:46;6.13;;;3.03;;
24249;SDS011;12379;49.820;8.648;2023-07-02T14:45:11;5.70;;;2.97;;
24249;SDS011;12379;49.820;8.648;2023-07-02T14:47:37;2.90;;;2.40;;
24249;SDS011;12379;49.820;8.648;2023-07-02T14:50:04;4.23;;;2.37;;
24249;SDS011;12379;49.820;8.648;2023-07-02T14:52:32;6.97;;;3.10;;
24249;SDS011;12379;49.820;8.648;2023-07-02T14:54:58;4.30;;;3.03;;
24249;SDS011;12379;49.820;8.648;2023-07-02T14:57:26;6.00;;;2.53;;
24249;SDS011;12379;49.820;8.648;2023-07-02T14:59:52;8.23;;;3.77;;
24249;SDS011;12379;49.820;8.648;2023-07-02T15:02:24;3.87;;;2.83;;